sensor_id;sensor_type;location;lat;lon;timestamp;P1;durP1;ratioP1;P2;durP2;ratioP2
62332;SDS011;48624;49.812;8.562;2023-04-15T00:02:13;5.38;;;2.75;;
62332;SDS011;48624;49.812;8.562;2023-04-15T00:04:40;6.93;;;2.78;;
62332;SDS011;48624;49.812;8.562;2023-04-15T00:07:05;9.18;;;3.10;;
62332;SDS011;48624;49.812;8.562;2023-04-15T00:09:31;5.07;;;3.63;;
62332;SDS011;48624;49.812;8.562;2023-04-15T00:11:56;5.47;;;4.72;;
62332;SDS011;48624;49.812;8.562;2023-04-15T00:14:21;6.70;;;6.20;;
62332;SDS011;48624;49.812;8.562;2023-04-15T00:16:47;9.18;;;6.80;;
62332;SDS011;48624;49.812;8.562;2023-04-15T00:19:19;10.43;;;6.43;;
62332;SDS011;48624;49.812;8.562;2023-04-15T00:21:44;8.43;;;5.88;;
62332;SDS011;48624;49.812;8.562;2023-04-15T00:24:10;5.93;;;5.25;;
62332;SDS011;48624;49.812;8.562;2023-04-15T00:26:35;4.95;;;3.67;;
62332;SDS011;48624;49.812;8.562;2023-04-15T00:29:00;7.38;;;4.03;;
62332;SDS011;48624;49.812;8.562;2023-04-15T00:31:26;5.80;;;4.55;;
62332;SDS011;48624;49.812;8.562;2023-04-15T00:33:51;4.38;;;4.07;;
62332;SDS011;48624;49.812;8.562;2023-04-15T00:36:17;5.60;;;5.13;;
62332;SDS011;48624;49.812;8.562;2023-04-15T00:38:42;6.43;;;5.93;;
62332;SDS011;48624;49.812;8.562;2023-04-15T00:41:08;6.00;;;5.47;;
62332;SDS011;48624;49.812;8.562;2023-04-15T00:43:34;4.90;;;4.50;;
62332;SDS011;48624;49.812;8.562;2023-04-15T00:46:00;5.75;;;5.35;;
62332;SDS011;48624;49.812;8.562;2023-04-15T00:48:27;6.15;;;5.50;;
62332;SDS011;48624;49.812;8.562;2023-04-15T00:50:53;7.05;;;6.55;;
62332;SDS011;48624;49.812;8.562;2023-04-15T00:53:19;10.27;;;7.70;;
62332;SDS011;48624;49.812;8.562;2023-04-15T00:55:44;9.52;;;8.95;;
62332;SDS011;48624;49.812;8.562;2023-04-15T00:58:09;10.73;;;9.93;;
62332;SDS011;48624;49.812;8.562;2023-04-15T01:00:35;7.70;;;6.72;;
62332;SDS011;48624;49.812;8.562;2023-04-15T01:03:01;5.65;;;5.10;;
62332;SDS011;48624;49.812;8.562;2023-04-15T01:05:27;6.93;;;6.32;;
62332;SDS011;48624;49.812;8.562;2023-04-15T01:07:52;5.82;;;4.75;;
62332;SDS011;48624;49.812;8.562;2023-04-15T01:10:19;6.15;;;4.10;;
62332;SDS011;48624;49.812;8.562;2023-04-15T01:12:45;5.25;;;3.88;;
62332;SDS011;48624;49.812;8.562;2023-04-15T01:15:10;5.18;;;2.95;;
62332;SDS011;48624;49.812;8.562;2023-04-15T01:17:36;3.58;;;3.28;;
62332;SDS011;48624;49.812;8.562;2023-04-15T01:20:01;4.10;;;3.22;;
62332;SDS011;48624;49.812;8.562;2023-04-15T01:22:27;6.35;;;3.55;;
62332;SDS011;48624;49.812;8.562;2023-04-15T01:25:05;6.00;;;4.03;;
62332;SDS011;48624;49.812;8.562;2023-04-15T01:27:39;4.27;;;3.17;;
62332;SDS011;48624;49.812;8.562;2023-04-15T01:30:06;3.23;;;2.87;;
62332;SDS011;48624;49.812;8.562;2023-04-15T01:32:32;4.77;;;2.43;;
62332;SDS011;48624;49.812;8.562;2023-04-15T01:34:58;3.65;;;2.70;;
62332;SDS011;48624;49.812;8.562;2023-04-15T01:37:23;7.13;;;3.28;;
62332;SDS011;48624;49.812;8.562;2023-04-15T01:39:50;5.82;;;3.78;;
62332;SDS011;48624;49.812;8.562;2023-04-15T01:42:15;7.60;;;4.13;;
62332;SDS011;48624;49.812;8.562;2023-04-15T01:44:41;10.30;;;5.03;;
62332;SDS011;48624;49.812;8.562;2023-04-15T01:47:06;5.87;;;4.60;;
62332;SDS011;48624;49.812;8.562;2023-04-15T01:49:31;11.30;;;5.15;;
62332;SDS011;48624;49.812;8.562;2023-04-15T01:51:56;7.28;;;5.47;;
62332;SDS011;48624;49.812;8.562;2023-04-15T01:54:22;7.43;;;5.68;;
62332;SDS011;48624;49.812;8.562;2023-04-15T01:56:47;6.50;;;5.57;;
62332;SDS011;48624;49.812;8.562;2023-04-15T01:59:13;6.45;;;4.93;;
62332;SDS011;48624;49.812;8.562;2023-04-15T02:01:38;7.10;;;5.70;;
62332;SDS011;48624;49.812;8.562;2023-04-15T02:04:05;10.07;;;6.10;;
62332;SDS011;48624;49.812;8.562;2023-04-15T02:06:31;7.45;;;6.60;;
62332;SDS011;48624;49.812;8.562;2023-04-15T02:08:56;7.40;;;6.70;;
62332;SDS011;48624;49.812;8.562;2023-04-15T02:11:22;8.73;;;6.70;;
62332;SDS011;48624;49.812;8.562;2023-04-15T02:13:48;10.37;;;7.83;;
62332;SDS011;48624;49.812;8.562;2023-04-15T02:16:14;9.63;;;8.73;;
62332;SDS011;48624;49.812;8.562;2023-04-15T02:18:41;10.10;;;9.50;;
62332;SDS011;48624;49.812;8.562;2023-04-15T02:21:08;12.45;;;11.48;;
62332;SDS011;48624;49.812;8.562;2023-04-15T02:23:33;10.55;;;9.82;;
62332;SDS011;48624;49.812;8.562;2023-04-15T02:25:58;10.35;;;9.55;;
62332;SDS011;48624;49.812;8.562;2023-04-15T02:28:24;7.60;;;6.82;;
62332;SDS011;48624;49.812;8.562;2023-04-15T02:30:49;8.10;;;5.78;;
62332;SDS011;48624;49.812;8.562;2023-04-15T02:33:16;6.28;;;4.88;;
62332;SDS011;48624;49.812;8.562;2023-04-15T02:35:42;6.75;;;5.57;;
62332;SDS011;48624;49.812;8.562;2023-04-15T02:38:09;7.28;;;5.50;;
62332;SDS011;48624;49.812;8.562;2023-04-15T02:40:35;6.35;;;5.45;;
62332;SDS011;48624;49.812;8.562;2023-04-15T02:43:01;6.68;;;6.07;;
62332;SDS011;48624;49.812;8.562;2023-04-15T02:45:26;7.37;;;5.53;;
62332;SDS011;48624;49.812;8.562;2023-04-15T02:47:52;7.07;;;6.47;;
62332;SDS011;48624;49.812;8.562;2023-04-15T02:50:18;9.17;;;5.10;;
62332;SDS011;48624;49.812;8.562;2023-04-15T02:52:45;6.35;;;5.70;;
62332;SDS011;48624;49.812;8.562;2023-04-15T02:55:10;6.53;;;5.40;;
62332;SDS011;48624;49.812;8.562;2023-04-15T02:57:36;6.72;;;6.13;;
62332;SDS011;48624;49.812;8.562;2023-04-15T03:00:04;10.60;;;5.40;;
62332;SDS011;48624;49.812;8.562;2023-04-15T03:02:33;8.10;;;5.83;;
62332;SDS011;48624;49.812;8.562;2023-04-15T03:05:03;10.50;;;5.88;;
62332;SDS011;48624;49.812;8.562;2023-04-15T03:07:30;10.27;;;6.25;;
62332;SDS011;48624;49.812;8.562;2023-04-15T03:09:55;6.47;;;5.70;;
62332;SDS011;48624;49.812;8.562;2023-04-15T03:12:21;7.35;;;5.90;;
62332;SDS011;48624;49.812;8.562;2023-04-15T03:14:46;6.50;;;5.90;;
62332;SDS011;48624;49.812;8.562;2023-04-15T03:17:11;6.40;;;5.90;;
62332;SDS011;48624;49.812;8.562;2023-04-15T03:19:37;5.87;;;5.47;;
62332;SDS011;48624;49.812;8.562;2023-04-15T03:22:02;7.57;;;6.13;;
62332;SDS011;48624;49.812;8.562;2023-04-15T03:24:27;6.87;;;5.97;;
62332;SDS011;48624;49.812;8.562;2023-04-15T03:26:54;6.35;;;5.85;;
62332;SDS011;48624;49.812;8.562;2023-04-15T03:29:20;6.47;;;5.88;;
62332;SDS011;48624;49.812;8.562;2023-04-15T03:31:45;7.27;;;6.57;;
62332;SDS011;48624;49.812;8.562;2023-04-15T03:34:10;6.13;;;5.53;;
62332;SDS011;48624;49.812;8.562;2023-04-15T03:36:36;8.87;;;6.43;;
62332;SDS011;48624;49.812;8.562;2023-04-15T03:39:01;7.90;;;6.40;;
62332;SDS011;48624;49.812;8.562;2023-04-15T03:41:27;8.27;;;7.47;;
62332;SDS011;48624;49.812;8.562;2023-04-15T03:43:52;9.30;;;8.70;;
62332;SDS011;48624;49.812;8.562;2023-04-15T03:46:18;10.43;;;9.43;;
62332;SDS011;48624;49.812;8.562;2023-04-15T03:48:43;8.85;;;8.02;;
62332;SDS011;48624;49.812;8.562;2023-04-15T03:51:09;6.70;;;6.25;;
62332;SDS011;48624;49.812;8.562;2023-04-15T03:53:34;7.73;;;6.43;;
62332;SDS011;48624;49.812;8.562;2023-04-15T03:56:00;6.70;;;6.10;;
62332;SDS011;48624;49.812;8.562;2023-04-15T03:58:25;7.20;;;6.43;;
62332;SDS011;48624;49.812;8.562;2023-04-15T04:00:51;7.00;;;6.30;;
62332;SDS011;48624;49.812;8.562;2023-04-15T04:03:16;8.43;;;7.83;;
62332;SDS011;48624;49.812;8.562;2023-04-15T04:05:42;8.07;;;7.17;;
62332;SDS011;48624;49.812;8.562;2023-04-15T04:08:08;7.67;;;6.97;;
62332;SDS011;48624;49.812;8.562;2023-04-15T04:10:34;7.83;;;7.13;;
62332;SDS011;48624;49.812;8.562;2023-04-15T04:13:00;8.40;;;7.57;;
62332;SDS011;48624;49.812;8.562;2023-04-15T04:15:26;7.50;;;6.80;;
62332;SDS011;48624;49.812;8.562;2023-04-15T04:17:52;7.88;;;7.25;;
62332;SDS011;48624;49.812;8.562;2023-04-15T04:20:17;6.82;;;6.20;;
62332;SDS011;48624;49.812;8.562;2023-04-15T04:22:42;6.47;;;5.87;;
62332;SDS011;48624;49.812;8.562;2023-04-15T04:25:08;6.90;;;6.13;;
62332;SDS011;48624;49.812;8.562;2023-04-15T04:27:36;6.72;;;6.22;;
62332;SDS011;48624;49.812;8.562;2023-04-15T04:30:02;7.53;;;6.87;;
62332;SDS011;48624;49.812;8.562;2023-04-15T04:32:28;7.83;;;6.97;;
62332;SDS011;48624;49.812;8.562;2023-04-15T04:34:53;8.73;;;7.87;;
62332;SDS011;48624;49.812;8.562;2023-04-15T04:37:18;9.80;;;7.93;;
62332;SDS011;48624;49.812;8.562;2023-04-15T04:39:44;11.97;;;7.60;;
62332;SDS011;48624;49.812;8.562;2023-04-15T04:42:09;7.77;;;7.10;;
62332;SDS011;48624;49.812;8.562;2023-04-15T04:44:35;8.43;;;7.57;;
62332;SDS011;48624;49.812;8.562;2023-04-15T04:47:02;15.67;;;8.47;;
62332;SDS011;48624;49.812;8.562;2023-04-15T04:49:28;9.17;;;8.33;;
62332;SDS011;48624;49.812;8.562;2023-04-15T04:51:53;8.33;;;7.53;;
62332;SDS011;48624;49.812;8.562;2023-04-15T04:54:18;10.20;;;8.65;;
62332;SDS011;48624;49.812;8.562;2023-04-15T04:56:45;10.80;;;9.90;;
62332;SDS011;48624;49.812;8.562;2023-04-15T04:59:11;16.67;;;15.50;;
62332;SDS011;48624;49.812;8.562;2023-04-15T05:01:36;10.87;;;10.00;;
62332;SDS011;48624;49.812;8.562;2023-04-15T05:04:01;8.95;;;8.32;;
62332;SDS011;48624;49.812;8.562;2023-04-15T05:06:28;10.68;;;8.80;;
62332;SDS011;48624;49.812;8.562;2023-04-15T05:08:55;7.57;;;6.97;;
62332;SDS011;48624;49.812;8.562;2023-04-15T05:11:20;8.63;;;7.33;;
62332;SDS011;48624;49.812;8.562;2023-04-15T05:13:46;7.75;;;6.15;;
62332;SDS011;48624;49.812;8.562;2023-04-15T05:16:11;8.00;;;6.67;;
62332;SDS011;48624;49.812;8.562;2023-04-15T05:18:36;8.30;;;6.90;;
62332;SDS011;48624;49.812;8.562;2023-04-15T05:21:02;8.70;;;6.73;;
62332;SDS011;48624;49.812;8.562;2023-04-15T05:23:28;9.17;;;6.70;;
62332;SDS011;48624;49.812;8.562;2023-04-15T05:25:54;11.07;;;7.30;;
62332;SDS011;48624;49.812;8.562;2023-04-15T05:28:19;11.77;;;7.97;;
62332;SDS011;48624;49.812;8.562;2023-04-15T05:30:45;9.07;;;8.17;;
62332;SDS011;48624;49.812;8.562;2023-04-15T05:33:10;8.40;;;7.17;;
62332;SDS011;48624;49.812;8.562;2023-04-15T05:35:36;13.97;;;8.33;;
62332;SDS011;48624;49.812;8.562;2023-04-15T05:38:01;9.80;;;8.83;;
62332;SDS011;48624;49.812;8.562;2023-04-15T05:40:26;10.17;;;9.07;;
62332;SDS011;48624;49.812;8.562;2023-04-15T05:42:52;11.70;;;10.50;;
62332;SDS011;48624;49.812;8.562;2023-04-15T05:45:17;11.20;;;10.00;;
62332;SDS011;48624;49.812;8.562;2023-04-15T05:47:42;11.37;;;10.17;;
62332;SDS011;48624;49.812;8.562;2023-04-15T05:50:08;13.97;;;9.90;;
62332;SDS011;48624;49.812;8.562;2023-04-15T05:52:34;12.35;;;11.18;;
62332;SDS011;48624;49.812;8.562;2023-04-15T05:54:59;11.00;;;10.20;;
62332;SDS011;48624;49.812;8.562;2023-04-15T05:57:24;11.13;;;10.07;;
62332;SDS011;48624;49.812;8.562;2023-04-15T05:59:50;13.23;;;11.73;;
62332;SDS011;48624;49.812;8.562;2023-04-15T06:02:16;10.50;;;9.48;;
62332;SDS011;48624;49.812;8.562;2023-04-15T06:04:45;10.60;;;9.67;;
62332;SDS011;48624;49.812;8.562;2023-04-15T06:07:10;10.68;;;9.77;;
62332;SDS011;48624;49.812;8.562;2023-04-15T06:09:36;13.05;;;11.57;;
62332;SDS011;48624;49.812;8.562;2023-04-15T06:12:01;13.70;;;12.55;;
62332;SDS011;48624;49.812;8.562;2023-04-15T06:14:27;12.03;;;11.20;;
62332;SDS011;48624;49.812;8.562;2023-04-15T06:16:52;13.67;;;12.57;;
62332;SDS011;48624;49.812;8.562;2023-04-15T06:19:17;15.30;;;13.17;;
62332;SDS011;48624;49.812;8.562;2023-04-15T06:21:43;15.70;;;14.30;;
62332;SDS011;48624;49.812;8.562;2023-04-15T06:24:09;13.95;;;12.68;;
62332;SDS011;48624;49.812;8.562;2023-04-15T06:26:35;32.38;;;22.45;;
62332;SDS011;48624;49.812;8.562;2023-04-15T06:29:00;22.83;;;19.87;;
62332;SDS011;48624;49.812;8.562;2023-04-15T06:31:26;18.52;;;16.67;;
62332;SDS011;48624;49.812;8.562;2023-04-15T06:33:52;22.48;;;20.63;;
62332;SDS011;48624;49.812;8.562;2023-04-15T06:36:17;21.05;;;19.38;;
62332;SDS011;48624;49.812;8.562;2023-04-15T06:38:42;20.03;;;18.73;;
62332;SDS011;48624;49.812;8.562;2023-04-15T06:41:07;21.75;;;20.35;;
62332;SDS011;48624;49.812;8.562;2023-04-15T06:43:33;26.80;;;24.80;;
62332;SDS011;48624;49.812;8.562;2023-04-15T06:45:59;28.50;;;26.23;;
62332;SDS011;48624;49.812;8.562;2023-04-15T06:48:24;30.90;;;28.60;;
62332;SDS011;48624;49.812;8.562;2023-04-15T06:50:49;28.75;;;26.88;;
62332;SDS011;48624;49.812;8.562;2023-04-15T06:53:14;28.60;;;26.92;;
62332;SDS011;48624;49.812;8.562;2023-04-15T06:55:40;29.38;;;27.65;;
62332;SDS011;48624;49.812;8.562;2023-04-15T06:58:06;32.97;;;31.05;;
62332;SDS011;48624;49.812;8.562;2023-04-15T07:00:31;43.05;;;40.75;;
62332;SDS011;48624;49.812;8.562;2023-04-15T07:02:58;41.70;;;39.58;;
62332;SDS011;48624;49.812;8.562;2023-04-15T07:05:26;39.30;;;36.83;;
62332;SDS011;48624;49.812;8.562;2023-04-15T07:07:52;42.05;;;39.58;;
62332;SDS011;48624;49.812;8.562;2023-04-15T07:10:17;43.63;;;41.17;;
62332;SDS011;48624;49.812;8.562;2023-04-15T07:12:42;48.88;;;46.17;;
62332;SDS011;48624;49.812;8.562;2023-04-15T07:15:08;41.30;;;38.78;;
62332;SDS011;48624;49.812;8.562;2023-04-15T07:17:33;46.55;;;44.33;;
62332;SDS011;48624;49.812;8.562;2023-04-15T07:19:59;48.63;;;46.28;;
62332;SDS011;48624;49.812;8.562;2023-04-15T07:22:24;49.13;;;46.65;;
62332;SDS011;48624;49.812;8.562;2023-04-15T07:24:50;53.67;;;51.15;;
62332;SDS011;48624;49.812;8.562;2023-04-15T07:27:15;59.83;;;56.85;;
62332;SDS011;48624;49.812;8.562;2023-04-15T07:29:41;59.10;;;56.38;;
62332;SDS011;48624;49.812;8.562;2023-04-15T07:32:07;63.58;;;60.45;;
62332;SDS011;48624;49.812;8.562;2023-04-15T07:34:34;76.05;;;72.38;;
62332;SDS011;48624;49.812;8.562;2023-04-15T07:37:00;71.72;;;68.22;;
62332;SDS011;48624;49.812;8.562;2023-04-15T07:39:25;71.63;;;68.45;;
62332;SDS011;48624;49.812;8.562;2023-04-15T07:41:51;67.80;;;64.45;;
62332;SDS011;48624;49.812;8.562;2023-04-15T07:44:16;68.38;;;65.05;;
62332;SDS011;48624;49.812;8.562;2023-04-15T07:46:41;47.20;;;44.72;;
62332;SDS011;48624;49.812;8.562;2023-04-15T07:49:07;28.55;;;26.65;;
62332;SDS011;48624;49.812;8.562;2023-04-15T07:51:32;24.67;;;22.88;;
62332;SDS011;48624;49.812;8.562;2023-04-15T07:53:58;25.15;;;23.52;;
62332;SDS011;48624;49.812;8.562;2023-04-15T07:56:23;23.70;;;22.20;;
62332;SDS011;48624;49.812;8.562;2023-04-15T07:58:48;29.33;;;27.15;;
62332;SDS011;48624;49.812;8.562;2023-04-15T08:01:13;32.75;;;30.85;;
62332;SDS011;48624;49.812;8.562;2023-04-15T08:03:39;36.25;;;34.13;;
62332;SDS011;48624;49.812;8.562;2023-04-15T08:06:05;39.88;;;37.88;;
62332;SDS011;48624;49.812;8.562;2023-04-15T08:08:30;29.45;;;27.88;;
62332;SDS011;48624;49.812;8.562;2023-04-15T08:10:57;36.58;;;34.38;;
62332;SDS011;48624;49.812;8.562;2023-04-15T08:13:22;31.52;;;29.80;;
62332;SDS011;48624;49.812;8.562;2023-04-15T08:15:52;26.45;;;24.95;;
62332;SDS011;48624;49.812;8.562;2023-04-15T08:18:38;15.38;;;12.18;;
62332;SDS011;48624;49.812;8.562;2023-04-15T08:21:03;13.25;;;11.55;;
62332;SDS011;48624;49.812;8.562;2023-04-15T08:23:29;11.00;;;9.98;;
62332;SDS011;48624;49.812;8.562;2023-04-15T08:25:55;12.73;;;11.43;;
62332;SDS011;48624;49.812;8.562;2023-04-15T08:28:21;14.10;;;8.10;;
62332;SDS011;48624;49.812;8.562;2023-04-15T08:30:46;12.18;;;9.73;;
62332;SDS011;48624;49.812;8.562;2023-04-15T08:33:12;10.13;;;9.25;;
62332;SDS011;48624;49.812;8.562;2023-04-15T08:35:37;10.73;;;9.90;;
62332;SDS011;48624;49.812;8.562;2023-04-15T08:38:02;11.55;;;7.72;;
62332;SDS011;48624;49.812;8.562;2023-04-15T08:40:29;11.63;;;6.65;;
62332;SDS011;48624;49.812;8.562;2023-04-15T08:43:04;9.20;;;6.97;;
62332;SDS011;48624;49.812;8.562;2023-04-15T08:45:32;8.45;;;6.28;;
62332;SDS011;48624;49.812;8.562;2023-04-15T08:47:58;9.23;;;6.72;;
62332;SDS011;48624;49.812;8.562;2023-04-15T08:50:27;10.00;;;6.25;;
62332;SDS011;48624;49.812;8.562;2023-04-15T08:52:54;7.85;;;4.93;;
62332;SDS011;48624;49.812;8.562;2023-04-15T08:55:20;10.52;;;5.90;;
62332;SDS011;48624;49.812;8.562;2023-04-15T08:57:47;6.82;;;4.88;;
62332;SDS011;48624;49.812;8.562;2023-04-15T09:00:12;6.90;;;4.32;;
62332;SDS011;48624;49.812;8.562;2023-04-15T09:02:38;6.18;;;4.47;;
62332;SDS011;48624;49.812;8.562;2023-04-15T09:05:05;4.63;;;3.83;;
62332;SDS011;48624;49.812;8.562;2023-04-15T09:07:34;6.93;;;3.60;;
62332;SDS011;48624;49.812;8.562;2023-04-15T09:10:01;6.15;;;3.45;;
62332;SDS011;48624;49.812;8.562;2023-04-15T09:12:27;6.35;;;3.50;;
62332;SDS011;48624;49.812;8.562;2023-04-15T09:14:53;6.60;;;3.55;;
62332;SDS011;48624;49.812;8.562;2023-04-15T09:17:19;6.45;;;4.25;;
62332;SDS011;48624;49.812;8.562;2023-04-15T09:19:45;6.78;;;3.63;;
62332;SDS011;48624;49.812;8.562;2023-04-15T09:22:11;5.88;;;3.72;;
62332;SDS011;48624;49.812;8.562;2023-04-15T09:24:38;9.93;;;4.20;;
62332;SDS011;48624;49.812;8.562;2023-04-15T09:27:05;5.00;;;2.97;;
62332;SDS011;48624;49.812;8.562;2023-04-15T09:29:30;4.22;;;3.00;;
62332;SDS011;48624;49.812;8.562;2023-04-15T09:31:57;6.05;;;3.78;;
62332;SDS011;48624;49.812;8.562;2023-04-15T09:34:36;4.70;;;3.78;;
62332;SDS011;48624;49.812;8.562;2023-04-15T09:37:02;6.32;;;3.92;;
62332;SDS011;48624;49.812;8.562;2023-04-15T09:39:41;5.88;;;3.85;;
62332;SDS011;48624;49.812;8.562;2023-04-15T09:42:09;5.50;;;3.00;;
62332;SDS011;48624;49.812;8.562;2023-04-15T09:44:35;4.38;;;3.42;;
62332;SDS011;48624;49.812;8.562;2023-04-15T09:47:01;9.38;;;3.67;;
62332;SDS011;48624;49.812;8.562;2023-04-15T09:49:27;4.97;;;3.00;;
62332;SDS011;48624;49.812;8.562;2023-04-15T09:51:56;5.10;;;2.67;;
62332;SDS011;48624;49.812;8.562;2023-04-15T09:54:22;5.22;;;2.72;;
62332;SDS011;48624;49.812;8.562;2023-04-15T09:56:47;3.60;;;2.50;;
62332;SDS011;48624;49.812;8.562;2023-04-15T09:59:13;9.10;;;2.85;;
62332;SDS011;48624;49.812;8.562;2023-04-15T10:01:39;3.60;;;2.17;;
62332;SDS011;48624;49.812;8.562;2023-04-15T10:04:06;4.38;;;2.75;;
62332;SDS011;48624;49.812;8.562;2023-04-15T10:06:32;3.90;;;2.17;;
62332;SDS011;48624;49.812;8.562;2023-04-15T10:08:58;5.57;;;2.20;;
62332;SDS011;48624;49.812;8.562;2023-04-15T10:11:27;4.15;;;2.28;;
62332;SDS011;48624;49.812;8.562;2023-04-15T10:13:53;3.17;;;2.08;;
62332;SDS011;48624;49.812;8.562;2023-04-15T10:16:20;5.88;;;2.72;;
62332;SDS011;48624;49.812;8.562;2023-04-15T10:18:53;2.50;;;1.95;;
62332;SDS011;48624;49.812;8.562;2023-04-15T10:21:19;3.83;;;2.20;;
62332;SDS011;48624;49.812;8.562;2023-04-15T10:23:47;3.45;;;2.10;;
62332;SDS011;48624;49.812;8.562;2023-04-15T10:26:16;1.92;;;1.40;;
62332;SDS011;48624;49.812;8.562;2023-04-15T10:28:42;2.35;;;1.73;;
62332;SDS011;48624;49.812;8.562;2023-04-15T10:31:07;2.95;;;1.70;;
62332;SDS011;48624;49.812;8.562;2023-04-15T10:33:37;2.92;;;1.83;;
62332;SDS011;48624;49.812;8.562;2023-04-15T10:36:04;3.95;;;2.10;;
62332;SDS011;48624;49.812;8.562;2023-04-15T10:41:24;1.98;;;1.40;;
62332;SDS011;48624;49.812;8.562;2023-04-15T10:46:28;2.30;;;1.30;;
62332;SDS011;48624;49.812;8.562;2023-04-15T10:49:06;2.22;;;1.55;;
62332;SDS011;48624;49.812;8.562;2023-04-15T10:51:35;2.83;;;1.98;;
62332;SDS011;48624;49.812;8.562;2023-04-15T10:54:08;2.53;;;1.90;;
62332;SDS011;48624;49.812;8.562;2023-04-15T10:59:31;2.60;;;1.13;;
62332;SDS011;48624;49.812;8.562;2023-04-15T11:02:02;1.80;;;1.50;;
62332;SDS011;48624;49.812;8.562;2023-04-15T11:10:03;5.57;;;1.63;;
62332;SDS011;48624;49.812;8.562;2023-04-15T11:12:50;2.72;;;1.83;;
62332;SDS011;48624;49.812;8.562;2023-04-15T11:20:35;3.63;;;1.42;;
62332;SDS011;48624;49.812;8.562;2023-04-15T11:23:02;1.67;;;1.30;;
62332;SDS011;48624;49.812;8.562;2023-04-15T11:25:30;3.53;;;1.42;;
62332;SDS011;48624;49.812;8.562;2023-04-15T11:27:59;2.53;;;1.48;;
62332;SDS011;48624;49.812;8.562;2023-04-15T11:30:25;1.63;;;1.15;;
62332;SDS011;48624;49.812;8.562;2023-04-15T11:32:53;1.83;;;1.35;;
62332;SDS011;48624;49.812;8.562;2023-04-15T11:35:23;2.25;;;1.65;;
62332;SDS011;48624;49.812;8.562;2023-04-15T11:37:49;5.82;;;2.40;;
62332;SDS011;48624;49.812;8.562;2023-04-15T11:40:25;4.97;;;1.50;;
62332;SDS011;48624;49.812;8.562;2023-04-15T11:45:44;2.78;;;1.27;;
62332;SDS011;48624;49.812;8.562;2023-04-15T11:48:13;2.60;;;1.20;;
62332;SDS011;48624;49.812;8.562;2023-04-15T11:50:39;3.28;;;1.75;;
62332;SDS011;48624;49.812;8.562;2023-04-15T11:53:05;2.40;;;1.65;;
62332;SDS011;48624;49.812;8.562;2023-04-15T11:55:45;2.15;;;1.35;;
62332;SDS011;48624;49.812;8.562;2023-04-15T11:58:13;3.58;;;2.10;;
62332;SDS011;48624;49.812;8.562;2023-04-15T12:00:44;2.88;;;1.52;;
62332;SDS011;48624;49.812;8.562;2023-04-15T12:03:24;1.60;;;1.13;;
62332;SDS011;48624;49.812;8.562;2023-04-15T12:08:51;2.67;;;1.83;;
62332;SDS011;48624;49.812;8.562;2023-04-15T12:13:56;2.50;;;1.67;;
62332;SDS011;48624;49.812;8.562;2023-04-15T12:16:43;1.65;;;1.27;;
62332;SDS011;48624;49.812;8.562;2023-04-15T12:19:17;2.70;;;1.40;;
62332;SDS011;48624;49.812;8.562;2023-04-15T12:21:49;3.83;;;1.67;;
62332;SDS011;48624;49.812;8.562;2023-04-15T12:24:15;6.85;;;1.52;;
62332;SDS011;48624;49.812;8.562;2023-04-15T12:26:50;1.70;;;1.10;;
62332;SDS011;48624;49.812;8.562;2023-04-15T12:29:23;1.73;;;1.10;;
62332;SDS011;48624;49.812;8.562;2023-04-15T12:31:51;2.53;;;1.27;;
62332;SDS011;48624;49.812;8.562;2023-04-15T12:34:30;1.13;;;0.95;;
62332;SDS011;48624;49.812;8.562;2023-04-15T12:36:58;1.90;;;0.63;;
62332;SDS011;48624;49.812;8.562;2023-04-15T12:39:26;2.25;;;0.70;;
62332;SDS011;48624;49.812;8.562;2023-04-15T12:41:53;0.82;;;0.60;;
62332;SDS011;48624;49.812;8.562;2023-04-15T12:44:20;1.00;;;0.82;;
62332;SDS011;48624;49.812;8.562;2023-04-15T12:46:48;2.22;;;0.73;;
62332;SDS011;48624;49.812;8.562;2023-04-15T12:49:14;1.05;;;0.80;;
62332;SDS011;48624;49.812;8.562;2023-04-15T12:51:40;2.95;;;1.10;;
62332;SDS011;48624;49.812;8.562;2023-04-15T12:54:06;1.67;;;1.35;;
62332;SDS011;48624;49.812;8.562;2023-04-15T12:56:31;1.00;;;0.68;;
62332;SDS011;48624;49.812;8.562;2023-04-15T12:58:57;2.45;;;1.13;;
62332;SDS011;48624;49.812;8.562;2023-04-15T13:01:22;9.85;;;1.40;;
62332;SDS011;48624;49.812;8.562;2023-04-15T13:03:47;2.08;;;1.17;;
62332;SDS011;48624;49.812;8.562;2023-04-15T13:06:15;2.55;;;2.10;;
62332;SDS011;48624;49.812;8.562;2023-04-15T13:08:40;2.97;;;2.20;;
62332;SDS011;48624;49.812;8.562;2023-04-15T13:11:06;3.05;;;1.75;;
62332;SDS011;48624;49.812;8.562;2023-04-15T13:13:31;1.90;;;1.80;;
62332;SDS011;48624;49.812;8.562;2023-04-15T13:15:57;2.20;;;1.77;;
62332;SDS011;48624;49.812;8.562;2023-04-15T13:18:22;4.93;;;1.90;;
62332;SDS011;48624;49.812;8.562;2023-04-15T13:20:48;4.50;;;1.83;;
62332;SDS011;48624;49.812;8.562;2023-04-15T13:23:14;1.88;;;1.08;;
62332;SDS011;48624;49.812;8.562;2023-04-15T13:25:39;1.10;;;0.70;;
62332;SDS011;48624;49.812;8.562;2023-04-15T13:28:05;0.85;;;0.80;;
62332;SDS011;48624;49.812;8.562;2023-04-15T13:30:30;1.13;;;1.00;;
62332;SDS011;48624;49.812;8.562;2023-04-15T13:32:56;2.17;;;2.03;;
62332;SDS011;48624;49.812;8.562;2023-04-15T13:35:21;10.13;;;9.68;;
62332;SDS011;48624;49.812;8.562;2023-04-15T13:37:47;7.18;;;6.88;;
62332;SDS011;48624;49.812;8.562;2023-04-15T13:40:12;4.13;;;3.92;;
62332;SDS011;48624;49.812;8.562;2023-04-15T13:42:37;9.07;;;8.70;;
62332;SDS011;48624;49.812;8.562;2023-04-15T13:45:03;11.85;;;11.10;;
62332;SDS011;48624;49.812;8.562;2023-04-15T13:47:29;60.08;;;57.65;;
62332;SDS011;48624;49.812;8.562;2023-04-15T13:49:54;15.50;;;14.90;;
62332;SDS011;48624;49.812;8.562;2023-04-15T13:52:21;32.85;;;31.60;;
62332;SDS011;48624;49.812;8.562;2023-04-15T13:54:47;34.88;;;33.72;;
62332;SDS011;48624;49.812;8.562;2023-04-15T13:57:12;55.38;;;53.53;;
62332;SDS011;48624;49.812;8.562;2023-04-15T13:59:38;29.08;;;28.02;;
62332;SDS011;48624;49.812;8.562;2023-04-15T14:02:03;49.83;;;48.22;;
62332;SDS011;48624;49.812;8.562;2023-04-15T14:04:30;24.30;;;23.42;;
62332;SDS011;48624;49.812;8.562;2023-04-15T14:06:55;169.45;;;159.70;;
62332;SDS011;48624;49.812;8.562;2023-04-15T14:09:21;43.15;;;41.50;;
62332;SDS011;48624;49.812;8.562;2023-04-15T14:11:48;30.00;;;29.02;;
62332;SDS011;48624;49.812;8.562;2023-04-15T14:14:14;59.38;;;57.30;;
62332;SDS011;48624;49.812;8.562;2023-04-15T14:16:39;30.80;;;29.75;;
62332;SDS011;48624;49.812;8.562;2023-04-15T14:19:05;67.45;;;65.00;;
62332;SDS011;48624;49.812;8.562;2023-04-15T14:21:30;103.78;;;99.88;;
62332;SDS011;48624;49.812;8.562;2023-04-15T14:23:56;38.15;;;36.92;;
62332;SDS011;48624;49.812;8.562;2023-04-15T14:26:22;54.78;;;52.97;;
62332;SDS011;48624;49.812;8.562;2023-04-15T14:28:48;45.42;;;43.97;;
62332;SDS011;48624;49.812;8.562;2023-04-15T14:31:13;71.47;;;69.03;;
62332;SDS011;48624;49.812;8.562;2023-04-15T14:33:39;60.00;;;57.97;;
62332;SDS011;48624;49.812;8.562;2023-04-15T14:36:05;33.03;;;31.83;;
62332;SDS011;48624;49.812;8.562;2023-04-15T14:38:33;46.58;;;45.08;;
62332;SDS011;48624;49.812;8.562;2023-04-15T14:41:02;58.05;;;56.17;;
62332;SDS011;48624;49.812;8.562;2023-04-15T14:43:32;48.80;;;47.25;;
62332;SDS011;48624;49.812;8.562;2023-04-15T14:45:57;55.35;;;53.50;;
62332;SDS011;48624;49.812;8.562;2023-04-15T14:48:23;73.57;;;71.22;;
62332;SDS011;48624;49.812;8.562;2023-04-15T14:50:48;51.55;;;49.85;;
62332;SDS011;48624;49.812;8.562;2023-04-15T14:53:13;68.13;;;65.82;;
62332;SDS011;48624;49.812;8.562;2023-04-15T14:55:39;76.35;;;73.85;;
62332;SDS011;48624;49.812;8.562;2023-04-15T14:58:05;86.45;;;83.68;;
62332;SDS011;48624;49.812;8.562;2023-04-15T15:00:32;75.70;;;73.13;;
62332;SDS011;48624;49.812;8.562;2023-04-15T15:02:58;112.18;;;108.47;;